createdAt,value
2017-08-14T00:00:04.444Z,61.20
2017-08-14T00:02:32.515Z,61.40
2017-08-14T00:05:00.586Z,61.10
2017-08-14T00:07:28.655Z,61.10
2017-08-14T00:09:56.731Z,61.20
2017-08-14T00:12:24.803Z,61.10
2017-08-14T00:14:52.870Z,60.60
2017-08-14T00:17:20.942Z,60.30
2017-08-14T00:19:49.012Z,60.60
2017-08-14T00:22:17.086Z,60.20
2017-08-14T00:24:45.186Z,60.50
2017-08-14T00:27:14.068Z,61.00
2017-08-14T00:29:42.130Z,61.00
2017-08-14T00:32:10.218Z,60.80
2017-08-14T00:34:39.056Z,61.20
2017-08-14T00:37:07.125Z,60.80
2017-08-14T00:39:35.204Z,62.60
2017-08-14T00:42:03.270Z,63.40
2017-08-14T00:44:31.354Z,63.50
2017-08-14T00:46:59.479Z,62.70
2017-08-14T00:49:27.547Z,62.30
2017-08-14T00:51:56.419Z,61.70
2017-08-14T00:54:24.521Z,61.60
2017-08-14T00:56:52.587Z,63.00
2017-08-14T00:59:21.428Z,61.80
2017-08-14T01:01:49.491Z,61.70
2017-08-14T01:04:17.563Z,61.80
2017-08-14T01:06:45.633Z,62.20
2017-08-14T01:09:13.706Z,62.20
2017-08-14T01:11:41.778Z,61.60
2017-08-14T01:14:09.849Z,61.80
2017-08-14T01:16:37.929Z,62.30
2017-08-14T01:19:06.403Z,62.00
2017-08-14T01:21:34.479Z,62.10
2017-08-14T01:24:02.548Z,62.50
2017-08-14T01:26:30.634Z,63.90
2017-08-14T01:28:58.698Z,63.80
2017-08-14T01:31:26.775Z,63.80
2017-08-14T01:33:54.842Z,64.20
2017-08-14T01:36:22.968Z,64.20
2017-08-14T01:38:51.806Z,64.50
2017-08-14T01:41:19.873Z,64.40
2017-08-14T01:43:47.946Z,65.00
2017-08-14T01:46:16.018Z,65.80
2017-08-14T01:48:44.096Z,66.10
2017-08-14T01:51:12.164Z,66.90
2017-08-14T01:53:40.251Z,67.50
2017-08-14T01:56:08.323Z,68.20
2017-08-14T01:58:36.403Z,67.70
2017-08-14T02:01:04.475Z,67.70
2017-08-14T02:03:32.547Z,68.40
2017-08-14T02:06:00.622Z,68.90
2017-08-14T02:08:28.682Z,68.70
2017-08-14T02:10:56.754Z,68.70
2017-08-14T02:13:24.818Z,67.80
2017-08-14T02:15:52.894Z,67.80
2017-08-14T02:18:20.960Z,67.70
2017-08-14T02:20:49.340Z,67.70
2017-08-14T02:23:17.414Z,67.50
2017-08-14T02:25:45.490Z,68.60
2017-08-14T02:28:13.557Z,68.30
2017-08-14T02:30:41.628Z,68.30
2017-08-14T02:33:09.687Z,68.60
2017-08-14T02:35:37.773Z,68.80
2017-08-14T02:38:06.643Z,69.00
2017-08-14T02:40:34.708Z,68.90
2017-08-14T02:43:03.552Z,69.50
2017-08-14T02:45:31.611Z,69.40
2017-08-14T02:47:59.690Z,69.80
2017-08-14T02:50:27.747Z,69.70
2017-08-14T02:52:55.820Z,69.40
2017-08-14T02:55:23.890Z,69.20
2017-08-14T02:57:51.960Z,68.70
2017-08-14T03:00:20.023Z,68.90
2017-08-14T03:02:48.098Z,69.20
2017-08-14T03:05:16.158Z,69.90
2017-08-14T03:07:44.222Z,69.70
2017-08-14T03:10:12.291Z,69.70
2017-08-14T03:12:41.139Z,69.00
2017-08-14T03:15:09.206Z,69.00
2017-08-14T03:17:37.276Z,69.00
2017-08-14T03:20:05.350Z,68.90
2017-08-14T03:22:33.421Z,68.60
2017-08-14T03:25:01.499Z,68.90
2017-08-14T03:27:29.566Z,69.40
2017-08-14T03:29:57.650Z,69.30
2017-08-14T03:32:25.722Z,69.40
2017-08-14T03:34:53.793Z,69.10
2017-08-14T03:37:21.850Z,69.20
2017-08-14T03:39:49.939Z,69.20
2017-08-14T03:42:18.061Z,69.50
2017-08-14T03:44:46.118Z,69.60
2017-08-14T03:47:14.206Z,69.30
2017-08-14T03:49:42.274Z,69.30
2017-08-14T03:52:10.333Z,69.30
2017-08-14T03:54:38.443Z,68.60
2017-08-14T03:57:06.518Z,68.30
2017-08-14T03:59:34.755Z,69.70
2017-08-14T04:02:03.610Z,68.70
2017-08-14T04:04:31.665Z,68.60
2017-08-14T04:06:59.751Z,68.00
2017-08-14T04:09:27.835Z,67.90
2017-08-14T04:11:55.911Z,68.40
2017-08-14T04:14:23.974Z,72.80
2017-08-14T04:16:52.054Z,72.50
2017-08-14T04:19:20.128Z,67.90
2017-08-14T04:21:48.215Z,68.20
2017-08-14T04:24:16.278Z,68.60
2017-08-14T04:26:44.355Z,68.50
2017-08-14T04:29:12.414Z,68.70
2017-08-14T04:31:40.494Z,69.40
2017-08-14T04:34:08.567Z,68.80
2017-08-14T04:36:36.651Z,67.70
2017-08-14T04:39:04.718Z,67.70
2017-08-14T04:41:32.780Z,68.30
2017-08-14T04:44:00.847Z,68.70
2017-08-14T04:46:28.923Z,69.60
2017-08-14T04:48:56.994Z,69.70
2017-08-14T04:51:25.063Z,69.40
2017-08-14T04:53:53.143Z,68.70
2017-08-14T04:56:21.212Z,68.50
2017-08-14T04:58:49.282Z,69.10
2017-08-14T05:01:17.357Z,68.90
2017-08-14T05:03:45.431Z,69.50
2017-08-14T05:06:13.506Z,69.60
2017-08-14T05:08:41.581Z,69.20
2017-08-14T05:11:09.662Z,69.20
2017-08-14T05:13:37.738Z,68.90
2017-08-14T05:16:05.811Z,68.40
2017-08-14T05:18:33.884Z,68.20
2017-08-14T05:21:02.723Z,68.30
2017-08-14T05:23:30.789Z,68.10
2017-08-14T05:25:58.866Z,68.70
2017-08-14T05:28:26.948Z,68.80
2017-08-14T05:30:55.031Z,68.00
2017-08-14T05:33:23.103Z,68.70
2017-08-14T05:35:51.174Z,68.80
2017-08-14T05:38:19.237Z,68.10
2017-08-14T05:40:47.326Z,67.70
2017-08-14T05:43:15.382Z,67.40
2017-08-14T05:45:43.474Z,67.40
2017-08-14T05:48:11.546Z,67.10
2017-08-14T05:50:39.622Z,66.40
2017-08-14T05:53:07.794Z,55.70
2017-08-14T05:55:35.882Z,41.70
2017-08-14T05:58:03.954Z,39.50
2017-08-14T06:00:32.026Z,41.00
2017-08-14T06:03:00.090Z,41.50
2017-08-14T06:05:28.163Z,32.20
2017-08-14T06:07:56.239Z,26.70
2017-08-14T06:10:24.303Z,22.30
2017-08-14T06:12:52.374Z,20.20
2017-08-14T06:15:20.439Z,20.20
2017-08-14T06:17:48.511Z,28.30
2017-08-14T06:20:16.573Z,34.20
2017-08-14T06:22:44.649Z,39.20
2017-08-14T06:25:12.726Z,42.10
2017-08-14T06:27:40.794Z,44.20
2017-08-14T06:30:08.858Z,44.90
2017-08-14T06:32:36.937Z,46.10
2017-08-14T06:35:05.001Z,47.60
2017-08-14T06:37:33.087Z,48.00
2017-08-14T06:40:01.157Z,48.80
2017-08-14T06:42:29.232Z,49.40
2017-08-14T06:44:57.319Z,49.30
2017-08-14T06:47:25.387Z,49.40
2017-08-14T06:49:53.462Z,49.30
2017-08-14T06:52:21.530Z,49.90
2017-08-14T06:54:49.623Z,49.80
2017-08-14T06:57:17.697Z,50.30
2017-08-14T06:59:46.547Z,51.10
2017-08-14T07:02:14.606Z,51.10
2017-08-14T07:04:42.692Z,51.00
2017-08-14T07:07:10.763Z,50.90
2017-08-14T07:09:38.846Z,50.60
2017-08-14T07:12:06.918Z,50.40
2017-08-14T07:14:34.992Z,49.40
2017-08-14T07:17:03.063Z,50.10
2017-08-14T07:19:31.132Z,49.50
2017-08-14T07:21:59.208Z,48.80
2017-08-14T07:24:27.294Z,49.20
2017-08-14T07:26:55.362Z,49.90
2017-08-14T07:29:23.430Z,49.50
2017-08-14T07:31:52.029Z,49.60
2017-08-14T07:34:20.106Z,49.80
2017-08-14T07:36:48.183Z,48.30
2017-08-14T07:39:16.251Z,48.60
2017-08-14T07:41:44.341Z,47.10
2017-08-14T07:44:12.410Z,48.90
2017-08-14T07:46:41.256Z,46.60
2017-08-14T07:49:09.339Z,45.80
2017-08-14T07:51:37.454Z,44.70
2017-08-14T07:54:05.526Z,43.60
2017-08-14T07:56:34.379Z,41.90
2017-08-14T07:59:02.438Z,41.80
2017-08-14T08:01:30.514Z,41.90
2017-08-14T08:03:58.592Z,42.60
2017-08-14T08:06:26.675Z,42.10
2017-08-14T08:08:54.742Z,42.20
2017-08-14T08:11:22.902Z,41.20
2017-08-14T08:13:50.970Z,41.90
2017-08-14T08:16:19.054Z,42.50
2017-08-14T08:18:47.341Z,42.80
2017-08-14T08:21:15.429Z,42.20
2017-08-14T08:23:43.509Z,41.70
2017-08-14T08:26:12.354Z,41.30
2017-08-14T08:28:40.415Z,41.20
2017-08-14T08:31:08.490Z,40.80
2017-08-14T08:33:36.559Z,41.70
2017-08-14T08:36:04.626Z,41.40
2017-08-14T08:38:32.730Z,42.10
2017-08-14T08:41:00.778Z,41.30
2017-08-14T08:43:28.875Z,40.70
2017-08-14T08:45:56.951Z,41.40
2017-08-14T08:48:25.019Z,42.30
2017-08-14T08:50:53.087Z,41.60
2017-08-14T08:53:21.163Z,41.20
2017-08-14T08:55:49.230Z,40.70
2017-08-14T08:58:17.307Z,39.80
2017-08-14T09:00:45.390Z,39.20
2017-08-14T09:03:13.467Z,40.10
2017-08-14T09:05:41.535Z,40.10
2017-08-14T09:08:09.611Z,39.80
2017-08-14T09:10:37.718Z,40.10
2017-08-14T09:13:05.803Z,39.00
2017-08-14T09:15:33.910Z,37.90
2017-08-14T09:18:01.991Z,37.50
2017-08-14T09:20:30.092Z,37.20
2017-08-14T09:22:58.935Z,37.30
2017-08-14T09:25:27.010Z,37.30
2017-08-14T09:27:55.078Z,36.10
2017-08-14T09:30:23.150Z,34.00
2017-08-14T09:32:51.223Z,35.40
2017-08-14T09:35:19.295Z,34.80
2017-08-14T09:37:47.362Z,34.20
2017-08-14T09:40:15.434Z,34.10
2017-08-14T09:42:43.508Z,33.10
2017-08-14T09:45:11.591Z,32.80
2017-08-14T09:47:39.681Z,32.50
2017-08-14T09:50:07.746Z,32.90
2017-08-14T09:52:35.819Z,32.90
2017-08-14T09:55:03.890Z,29.70
2017-08-14T09:57:31.971Z,31.90
2017-08-14T10:00:00.035Z,32.10
2017-08-14T10:02:28.115Z,32.80
2017-08-14T10:04:56.382Z,32.80
2017-08-14T10:07:24.451Z,32.00
2017-08-14T10:09:52.814Z,32.20
2017-08-14T10:12:20.887Z,32.00
2017-08-14T10:14:48.967Z,30.20
2017-08-14T10:17:17.031Z,30.50
2017-08-14T10:19:45.111Z,30.40
2017-08-14T10:22:13.482Z,31.20
2017-08-14T10:24:41.554Z,32.80
2017-08-14T10:27:09.630Z,33.00
2017-08-14T10:29:37.704Z,32.90
2017-08-14T10:32:05.779Z,32.10
2017-08-14T10:34:33.852Z,31.50
2017-08-14T10:37:01.922Z,31.30
2017-08-14T10:39:30.018Z,31.10
2017-08-14T10:41:58.087Z,30.10
2017-08-14T10:44:26.159Z,30.90
2017-08-14T10:46:54.227Z,30.10
2017-08-14T10:49:22.319Z,27.40
2017-08-14T10:51:50.398Z,26.20
2017-08-14T10:54:18.475Z,26.90
2017-08-14T10:56:46.551Z,26.20
2017-08-14T10:59:15.410Z,23.30
2017-08-14T11:01:43.494Z,22.80
2017-08-14T11:04:11.586Z,22.90
2017-08-14T11:06:40.442Z,24.10
2017-08-14T11:09:08.510Z,24.20
2017-08-14T11:11:36.587Z,24.60
2017-08-14T11:14:04.672Z,24.70
2017-08-14T11:16:32.754Z,25.20
2017-08-14T11:19:00.831Z,24.70
2017-08-14T11:21:28.896Z,25.10
2017-08-14T11:23:56.982Z,25.90
2017-08-14T11:26:25.043Z,26.10
2017-08-14T11:28:53.127Z,25.50
2017-08-14T11:31:21.210Z,26.70
2017-08-14T11:33:50.061Z,26.80
2017-08-14T11:36:18.133Z,26.80
2017-08-14T11:38:46.207Z,26.90
2017-08-14T11:41:14.278Z,26.90
2017-08-14T11:43:42.373Z,26.80
2017-08-14T11:46:10.439Z,27.20
2017-08-14T11:48:38.534Z,27.00
2017-08-14T11:51:06.614Z,27.40
2017-08-14T11:53:35.455Z,27.00
2017-08-14T11:56:03.551Z,26.90
2017-08-14T11:58:31.628Z,27.00
2017-08-14T12:00:59.708Z,26.30
2017-08-14T12:03:28.562Z,26.40
2017-08-14T12:05:56.650Z,26.10
2017-08-14T12:08:24.713Z,26.40
2017-08-14T12:10:52.802Z,27.10
2017-08-14T12:13:20.876Z,26.90
2017-08-14T12:15:48.953Z,27.10
2017-08-14T12:18:17.022Z,27.10
2017-08-14T12:20:45.109Z,27.20
2017-08-14T12:23:13.973Z,26.70
2017-08-14T12:25:42.059Z,26.60
2017-08-14T12:28:10.130Z,26.40
2017-08-14T12:30:38.214Z,26.00
2017-08-14T12:33:06.295Z,26.70
2017-08-14T12:35:34.388Z,26.10
2017-08-14T12:38:02.474Z,25.60
2017-08-14T12:40:30.552Z,25.20
2017-08-14T12:42:58.640Z,25.60
2017-08-14T12:45:26.728Z,26.30
2017-08-14T12:47:54.815Z,25.30
2017-08-14T12:50:22.888Z,25.00
2017-08-14T12:52:50.976Z,25.40
2017-08-14T12:55:19.042Z,25.60
2017-08-14T12:57:47.892Z,24.90
2017-08-14T13:00:15.978Z,25.30
2017-08-14T13:02:44.069Z,24.40
2017-08-14T13:05:12.920Z,24.50
2017-08-14T13:07:41.009Z,24.40
2017-08-14T13:10:09.098Z,24.40
2017-08-14T13:12:37.194Z,24.70
2017-08-14T13:15:05.287Z,25.00
2017-08-14T13:17:33.373Z,25.60
2017-08-14T13:20:01.452Z,25.10
2017-08-14T13:22:29.526Z,24.40
2017-08-14T13:24:57.610Z,24.70
2017-08-14T13:27:25.670Z,25.00
2017-08-14T13:29:53.757Z,25.10
2017-08-14T13:32:21.863Z,23.90
2017-08-14T13:34:50.301Z,23.70
2017-08-14T13:37:18.379Z,23.70
2017-08-14T13:39:46.467Z,23.50
2017-08-14T13:42:14.547Z,23.70
2017-08-14T13:44:42.632Z,23.80
2017-08-14T13:47:10.710Z,23.80
2017-08-14T13:49:39.571Z,23.40
2017-08-14T13:52:07.648Z,22.90
2017-08-14T13:54:35.746Z,23.00
2017-08-14T13:57:03.839Z,23.90
2017-08-14T13:59:31.913Z,23.20
2017-08-14T14:02:00.018Z,22.40
2017-08-14T14:04:28.539Z,22.70
2017-08-14T14:06:56.638Z,21.40
2017-08-14T14:09:24.712Z,22.00
2017-08-14T14:11:52.796Z,21.90
2017-08-14T14:14:20.867Z,22.40
2017-08-14T14:16:48.963Z,22.50
2017-08-14T14:19:17.039Z,22.50
2017-08-14T14:21:45.130Z,22.50
2017-08-14T14:24:13.218Z,21.90
2017-08-14T14:26:41.297Z,22.70
2017-08-14T14:29:09.408Z,22.60
2017-08-14T14:31:37.478Z,22.90
2017-08-14T14:34:05.580Z,22.90
2017-08-14T14:36:33.674Z,22.80
2017-08-14T14:39:01.755Z,22.20
2017-08-14T14:41:29.828Z,22.50
2017-08-14T14:43:57.928Z,21.70
2017-08-14T14:46:26.015Z,21.70
2017-08-14T14:48:54.114Z,21.70
2017-08-14T14:51:22.404Z,22.30
2017-08-14T14:53:50.495Z,21.80
2017-08-14T14:56:18.579Z,22.30
2017-08-14T14:58:46.665Z,22.00
2017-08-14T15:01:14.787Z,22.70
2017-08-14T15:03:42.883Z,22.30
2017-08-14T15:06:10.967Z,22.70
2017-08-14T15:08:39.054Z,23.40
2017-08-14T15:11:07.929Z,23.20
2017-08-14T15:13:35.994Z,23.10
2017-08-14T15:16:04.092Z,22.20
2017-08-14T15:18:32.176Z,21.90
2017-08-14T15:21:00.263Z,22.40
2017-08-14T15:23:28.352Z,22.20
2017-08-14T15:25:56.441Z,22.30
2017-08-14T15:28:24.521Z,22.00
2017-08-14T15:30:52.612Z,22.40
2017-08-14T15:33:21.452Z,21.80
2017-08-14T15:35:49.544Z,21.70
2017-08-14T15:38:17.637Z,22.30
2017-08-14T15:40:45.719Z,21.90
2017-08-14T15:43:13.795Z,22.30
2017-08-14T15:45:42.134Z,22.10
2017-08-14T15:48:10.236Z,22.60
2017-08-14T15:50:38.321Z,22.60
2017-08-14T15:53:06.402Z,22.90
2017-08-14T15:55:34.487Z,24.00
2017-08-14T15:58:02.579Z,23.30
2017-08-14T16:00:30.665Z,22.50
2017-08-14T16:02:58.752Z,22.70
2017-08-14T16:05:26.846Z,22.60
2017-08-14T16:07:54.941Z,22.20
2017-08-14T16:10:23.021Z,21.90
2017-08-14T16:12:51.109Z,22.30
2017-08-14T16:15:19.196Z,21.90
2017-08-14T16:17:47.283Z,22.00
2017-08-14T16:20:15.363Z,21.80
2017-08-14T16:22:43.465Z,22.10
2017-08-14T16:25:12.304Z,22.30
2017-08-14T16:27:40.402Z,22.20
2017-08-14T16:30:08.530Z,22.70
2017-08-14T16:32:36.615Z,22.70
2017-08-14T16:35:04.707Z,22.90
2017-08-14T16:37:32.795Z,22.80
2017-08-14T16:40:00.907Z,22.30
2017-08-14T16:42:28.979Z,22.90
2017-08-14T16:44:57.071Z,23.20
2017-08-14T16:47:25.170Z,23.70
2017-08-14T16:49:53.320Z,23.30
2017-08-14T16:52:21.398Z,23.60
2017-08-14T16:54:49.479Z,23.80
2017-08-14T16:57:17.586Z,23.70
2017-08-14T16:59:45.663Z,23.60
2017-08-14T17:02:14.372Z,23.70
2017-08-14T17:04:42.455Z,23.70
2017-08-14T17:07:10.550Z,24.10
2017-08-14T17:09:38.630Z,24.00
2017-08-14T17:12:06.747Z,24.60
2017-08-14T17:14:34.827Z,24.00
2017-08-14T17:17:02.910Z,24.40
2017-08-14T17:19:31.761Z,24.90
2017-08-14T17:21:59.847Z,24.90
2017-08-14T17:24:27.927Z,24.90
2017-08-14T17:26:56.009Z,25.00
2017-08-14T17:29:24.089Z,25.10
2017-08-14T17:31:52.200Z,24.40
2017-08-14T17:34:20.288Z,25.50
2017-08-14T17:36:48.370Z,25.50
2017-08-14T17:39:16.443Z,25.70
2017-08-14T17:41:44.519Z,26.10
2017-08-14T17:44:12.626Z,26.60
2017-08-14T17:46:40.694Z,26.70
2017-08-14T17:49:09.539Z,26.70
2017-08-14T17:51:37.607Z,26.60
2017-08-14T17:54:05.684Z,26.90
2017-08-14T17:56:33.755Z,27.20
2017-08-14T17:59:01.849Z,27.20
2017-08-14T18:01:29.933Z,27.20
2017-08-14T18:03:58.024Z,27.40
2017-08-14T18:06:26.880Z,27.70
2017-08-14T18:08:55.040Z,27.70
2017-08-14T18:11:23.121Z,27.90
2017-08-14T18:13:51.202Z,28.30
2017-08-14T18:16:19.304Z,28.10
2017-08-14T18:18:48.165Z,28.80
2017-08-14T18:21:16.250Z,28.60
2017-08-14T18:23:44.322Z,28.90
2017-08-14T18:26:12.397Z,28.70
2017-08-14T18:28:40.479Z,28.90
2017-08-14T18:31:09.338Z,29.40
2017-08-14T18:33:37.413Z,29.40
2017-08-14T18:36:05.489Z,29.40
2017-08-14T18:38:33.568Z,30.30
2017-08-14T18:41:01.646Z,30.00
2017-08-14T18:43:29.718Z,29.70
2017-08-14T18:45:57.802Z,29.00
2017-08-14T18:48:26.643Z,29.70
2017-08-14T18:50:54.720Z,29.00
2017-08-14T18:53:22.817Z,29.40
2017-08-14T18:55:50.888Z,29.20
2017-08-14T18:58:18.971Z,30.20
2017-08-14T19:00:47.069Z,30.10
2017-08-14T19:03:15.932Z,30.20
2017-08-14T19:05:44.011Z,30.20
2017-08-14T19:08:12.798Z,30.60
2017-08-14T19:10:40.936Z,31.30
2017-08-14T19:13:09.014Z,31.20
2017-08-14T19:15:37.092Z,31.80
2017-08-14T19:18:05.167Z,31.60
2017-08-14T19:20:33.242Z,31.90
2017-08-14T19:23:01.350Z,32.30
2017-08-14T19:25:30.212Z,32.70
2017-08-14T19:27:58.288Z,32.60
2017-08-14T19:30:26.362Z,33.10
2017-08-14T19:32:54.447Z,32.80
2017-08-14T19:35:22.528Z,32.60
2017-08-14T19:37:50.603Z,32.90
2017-08-14T19:40:19.461Z,33.60
2017-08-14T19:42:47.539Z,33.50
2017-08-14T19:45:15.631Z,33.40
2017-08-14T19:47:43.728Z,33.30
2017-08-14T19:50:11.803Z,33.60
2017-08-14T19:52:39.885Z,34.20
2017-08-14T19:55:07.983Z,34.20
2017-08-14T19:57:36.059Z,34.00
2017-08-14T20:00:04.132Z,34.10
2017-08-14T20:02:32.220Z,34.10
2017-08-14T20:05:00.297Z,34.10
2017-08-14T20:07:28.386Z,34.30
2017-08-14T20:09:56.464Z,34.00
2017-08-14T20:12:25.322Z,33.80
2017-08-14T20:14:53.400Z,33.70
2017-08-14T20:17:21.510Z,33.60
2017-08-14T20:19:49.623Z,33.80
2017-08-14T20:22:17.716Z,33.80
2017-08-14T20:24:45.792Z,33.70
2017-08-14T20:27:13.880Z,33.70
2017-08-14T20:29:42.018Z,33.70
2017-08-14T20:32:10.095Z,33.70
2017-08-14T20:34:38.200Z,36.10
2017-08-14T20:37:06.279Z,33.70
2017-08-14T20:39:34.356Z,33.60
2017-08-14T20:42:02.436Z,33.60
2017-08-14T20:44:31.302Z,33.60
2017-08-14T20:46:59.365Z,33.50
2017-08-14T20:49:27.450Z,33.40
2017-08-14T20:51:55.533Z,33.40
2017-08-14T20:54:23.610Z,33.30
2017-08-14T20:56:52.459Z,33.30
2017-08-14T20:59:20.542Z,33.20
2017-08-14T21:01:48.625Z,33.70
2017-08-14T21:04:16.706Z,33.30
2017-08-14T21:06:44.784Z,33.30
2017-08-14T21:09:14.454Z,35.40
2017-08-14T21:11:42.543Z,34.90
2017-08-14T21:14:10.611Z,35.60
2017-08-14T21:16:38.705Z,36.20
2017-08-14T21:19:06.781Z,36.30
2017-08-14T21:21:34.860Z,36.60
2017-08-14T21:24:02.927Z,36.50
2017-08-14T21:26:31.003Z,36.70
2017-08-14T21:28:59.842Z,37.80
2017-08-14T21:31:27.915Z,37.20
2017-08-14T21:33:55.999Z,37.60
2017-08-14T21:36:24.085Z,37.20
2017-08-14T21:38:52.181Z,36.00
2017-08-14T21:41:20.308Z,36.90
2017-08-14T21:43:48.387Z,37.30
2017-08-14T21:46:16.467Z,37.40
2017-08-14T21:48:44.542Z,37.60
2017-08-14T21:51:12.629Z,37.50
2017-08-14T21:53:40.708Z,37.30
2017-08-14T21:56:08.778Z,37.60
2017-08-14T21:58:36.858Z,37.80
2017-08-14T22:01:04.927Z,37.90
2017-08-14T22:03:33.006Z,37.50
2017-08-14T22:06:01.075Z,36.60
2017-08-14T22:08:29.163Z,36.70
2017-08-14T22:10:57.999Z,36.80
2017-08-14T22:13:26.087Z,36.70
2017-08-14T22:15:54.399Z,36.20
2017-08-14T22:18:22.479Z,35.90
2017-08-14T22:20:50.601Z,36.40
2017-08-14T22:23:18.660Z,36.50
2017-08-14T22:25:46.843Z,36.10
2017-08-14T22:28:15.071Z,35.70
2017-08-14T22:30:43.912Z,36.40
2017-08-14T22:33:11.988Z,36.10
2017-08-14T22:35:40.064Z,35.70
2017-08-14T22:38:08.144Z,36.00
2017-08-14T22:40:36.219Z,36.10
2017-08-14T22:43:04.283Z,35.30
2017-08-14T22:45:32.359Z,35.30
2017-08-14T22:48:00.448Z,35.40
2017-08-14T22:50:28.508Z,34.80
2017-08-14T22:52:56.579Z,35.40
2017-08-14T22:55:24.663Z,35.50
2017-08-14T22:57:52.736Z,34.60
2017-08-14T23:00:20.803Z,35.40
2017-08-14T23:02:48.878Z,34.70
2017-08-14T23:05:16.944Z,35.10
2017-08-14T23:07:45.011Z,35.50
2017-08-14T23:10:13.089Z,35.70
2017-08-14T23:12:41.170Z,36.00
2017-08-14T23:15:09.226Z,36.40
2017-08-14T23:17:37.302Z,36.60
2017-08-14T23:20:05.384Z,36.50
2017-08-14T23:22:33.465Z,36.50
2017-08-14T23:25:01.545Z,36.40
2017-08-14T23:27:29.649Z,36.90
2017-08-14T23:29:57.744Z,37.00
2017-08-14T23:32:25.871Z,37.20
2017-08-14T23:34:54.712Z,37.80
2017-08-14T23:37:22.786Z,37.70
2017-08-14T23:39:50.887Z,37.70
2017-08-14T23:42:18.981Z,37.90
2017-08-14T23:44:47.851Z,38.00
2017-08-14T23:47:15.965Z,37.90
2017-08-14T23:49:44.061Z,38.00
2017-08-14T23:52:12.133Z,38.30
2017-08-14T23:54:41.194Z,38.20
2017-08-14T23:57:10.047Z,38.50
2017-08-14T23:59:39.379Z,38.40
